Szafir — 5BFC3 — position and weather

sailwx.info

Track history (hours):
 
Tides and Currents Weather Stations Pressure Air Temp Water Temp Dewpoint Dewpoint Depression Visibility Wind Speed Wind Dir Waves Ship Positions

Szafir

Last reported at 2017-Feb-19 22:04 UTC. Time now 2017-Feb-24 08:07 UTC.
Position N 13°56' W 017°56'.

Length 113 m; draft 8.8 m.

Type: Cargo ship. MMSI: 209366000.

Date/timePositionNaut miles runAvg speedWind from/ knotsBaromVisibWave heightAir tempDewpointWater temp
2017-Feb-19 22:04N 13°56' W 017°56'1013.1
2017-Feb-19 21:17N 14°06' W 017°56'1313.1
2017-Feb-19 20:18N 14°19' W 017°56'2913.0
2017-Feb-19 18:05N 14°48' W 017°56'1012.6
2017-Feb-19 17:18N 14°58' W 017°56'3613.0
2017-Feb-19 14:31N 15°34' W 017°56'6513.1
2017-Feb-19 09:33N 16°39' W 017°56'62412.4
2017-Feb-17 07:08N 26°39' W 014°49'812.9
2017-Feb-17 06:32N 26°45' W 014°44'1212.7
2017-Feb-17 05:33N 26°55' W 014°35'1312.7
2017-Feb-17 04:33N 27°05' W 014°26'1312.8
2017-Feb-17 03:32N 27°15' W 014°17'1312.8
2017-Feb-17 02:32N 27°25' W 014°08'1313.0
2017-Feb-17 01:33N 27°35' W 013°59'1313.2
2017-Feb-17 00:33N 27°45' W 013°50'1313.5
2017-Feb-16 23:33N 27°56' W 013°41'1413.4
2017-Feb-16 22:32N 28°08' W 013°33'1313.4
2017-Feb-16 21:32N 28°19' W 013°25'1313.1
2017-Feb-16 20:33N 28°30' W 013°17'1313.2
2017-Feb-16 19:32N 28°41' W 013°09'1313.2
2017-Feb-16 18:32N 28°52' W 013°01'1313.3
2017-Feb-16 17:32N 29°04' W 012°53'1313.1
2017-Feb-16 16:32N 29°15' W 012°45'5112.7
2017-Feb-16 12:33N 29°58' W 012°14'1712.8
2017-Feb-16 11:15N 30°12' W 012°04'912.8
2017-Feb-16 10:33N 30°19' W 011°58'1413.0
2017-Feb-16 09:29N 30°31' W 011°50'1213.0
2017-Feb-16 08:33N 30°41' W 011°42'1313.1
2017-Feb-16 07:34N 30°52' W 011°34'5112.9
2017-Feb-16 03:33N 31°36' W 011°02'39012.5
2017-Feb-14 20:27N 38°02' W 009°60'1412.1
2017-Feb-14 19:18N 38°16' W 009°60'912.1
2017-Feb-14 18:33N 38°25' W 010°01'1211.8
2017-Feb-14 17:33N 38°37' W 010°05'1211.8
2017-Feb-14 16:33N 38°48' W 010°06'1111.3
2017-Feb-14 15:33N 38°60' W 010°06'1111.1
2017-Feb-14 14:33N 39°11' W 010°06'332 9.1
2017-Feb-13 02:05N 43°54' W 006°13'712.4
2017-Feb-13 01:31N 43°53' W 006°03'  
Track history (hours):
 
Tides and Currents Weather Stations Pressure Air Temp Water Temp Dewpoint Dewpoint Depression Visibility Wind Speed Wind Dir Waves Ship Positions

Szafir

Last reported at 2017-Feb-19 22:04 UTC. Time now 2017-Feb-24 08:07 UTC.
Position N 13°56' W 017°56'.

Length 113 m; draft 8.8 m.

Type: Cargo ship. MMSI: 209366000.

Date/timePositionNaut miles runAvg speedWind from/ knotsBaromVisibWave heightAir tempDewpointWater temp
2017-Feb-19 22:04N 13°56' W 017°56'1013.1
2017-Feb-19 21:17N 14°06' W 017°56'1313.1
2017-Feb-19 20:18N 14°19' W 017°56'2913.0
2017-Feb-19 18:05N 14°48' W 017°56'1012.6
2017-Feb-19 17:18N 14°58' W 017°56'3613.0
2017-Feb-19 14:31N 15°34' W 017°56'6513.1
2017-Feb-19 09:33N 16°39' W 017°56'62412.4
2017-Feb-17 07:08N 26°39' W 014°49'812.9
2017-Feb-17 06:32N 26°45' W 014°44'1212.7
2017-Feb-17 05:33N 26°55' W 014°35'1312.7
2017-Feb-17 04:33N 27°05' W 014°26'1312.8
2017-Feb-17 03:32N 27°15' W 014°17'1312.8
2017-Feb-17 02:32N 27°25' W 014°08'1313.0
2017-Feb-17 01:33N 27°35' W 013°59'1313.2
2017-Feb-17 00:33N 27°45' W 013°50'1313.5
2017-Feb-16 23:33N 27°56' W 013°41'1413.4
2017-Feb-16 22:32N 28°08' W 013°33'1313.4
2017-Feb-16 21:32N 28°19' W 013°25'1313.1
2017-Feb-16 20:33N 28°30' W 013°17'1313.2
2017-Feb-16 19:32N 28°41' W 013°09'1313.2
2017-Feb-16 18:32N 28°52' W 013°01'1313.3
2017-Feb-16 17:32N 29°04' W 012°53'1313.1
2017-Feb-16 16:32N 29°15' W 012°45'5112.7
2017-Feb-16 12:33N 29°58' W 012°14'1712.8
2017-Feb-16 11:15N 30°12' W 012°04'912.8
2017-Feb-16 10:33N 30°19' W 011°58'1413.0
2017-Feb-16 09:29N 30°31' W 011°50'1213.0
2017-Feb-16 08:33N 30°41' W 011°42'1313.1
2017-Feb-16 07:34N 30°52' W 011°34'5112.9
2017-Feb-16 03:33N 31°36' W 011°02'39012.5
2017-Feb-14 20:27N 38°02' W 009°60'1412.1
2017-Feb-14 19:18N 38°16' W 009°60'912.1
2017-Feb-14 18:33N 38°25' W 010°01'1211.8
2017-Feb-14 17:33N 38°37' W 010°05'1211.8
2017-Feb-14 16:33N 38°48' W 010°06'1111.3
2017-Feb-14 15:33N 38°60' W 010°06'1111.1
2017-Feb-14 14:33N 39°11' W 010°06'332 9.1
2017-Feb-13 02:05N 43°54' W 006°13'712.4
2017-Feb-13 01:31N 43°53' W 006°03'  

Dump ship's entire track history